General Aviation Weather

Text Reports

Enter one or more of the following location identifiers separated by a space:

Zip Code, Four-Character ICAO or Three-Character IATA airport codes.

METAR - Aviation Routine Weather Report
KVWU - Waskish, Minnesota
Updated at 9:09 PM GMT on April 18, 2014 (4:09 PM CDT):
METAR KVWU 182109Z AUTO 12015G19KT 10SM CLR 11/M07 A3023 RMK AO2
TAF - Terminal Area Forecast
KVWU - Waskish, Minnesota
Updated at 9:09 PM GMT on April 18, 2014 (4:09 PM CDT):
No TAF is currently available for this location.
Decoded:
No decoded TAF is available.
PIREP - Pilot Weather Report
KVWU - Waskish, Minnesota
Updated at 9:09 PM GMT on April 18, 2014 (4:09 PM CDT):
No PIREP is currently available for this location.
AIRMET - Airmens Meteorological Information
KVWU - Waskish, Minnesota
Updated at 9:09 PM GMT on April 18, 2014 (4:09 PM CDT):
No AIRMET is currently available for this location.
SIGMET - Significant Meteorological Information
KVWU - Waskish, Minnesota
Updated at 9:09 PM GMT on April 18, 2014 (4:09 PM CDT):
No SIGMET is currently available for this location.
NOTAM - Notice to Airmen
KVWU - Waskish, Minnesota
Updated at 9:09 PM GMT on April 18, 2014 (4:09 PM CDT):
No NOTAM is currently available for this location.
Forecast Area
KVWU - Waskish, Minnesota
Updated at 9:09 PM GMT on April 18, 2014 (4:09 PM CDT):
No NOTAM is currently available for this location.
Aviation Weather Maps